Time;durP1;ratioP1;P1;durP2;ratioP2;P2;SDS_P1;SDS_P2;PMS_P1;PMS_P2;Temp;Humidity;BMP_temperature;BMP_pressure;BME280_temperature;BME280_humidity;BME280_pressure;Samples;Min_cycle;Max_cycle;Signal;HPM_P1;HPM_P2
2022/04/15 00:01:14;;;;;;;;;;;23.90;38.90;;;;;;1538690;77;748;-65
2022/04/15 00:03:16;;;;;;;;;;;23.90;38.90;;;;;;1538656;77;1118;-67
2022/04/15 00:05:34;;;;;;;;;;;23.90;38.90;;;;;;1537687;77;729;-66
2022/04/15 00:07:33;;;;;;;;;;;23.90;38.90;;;;;;1538421;76;1686;-66
2022/04/15 00:09:35;;;;;;;;;;;23.90;38.90;;;;;;1538671;77;727;-65
2022/04/15 00:11:37;;;;;;;;;;;23.90;38.90;;;;;;1538452;77;1912;-68
2022/04/15 00:13:41;;;;;;;;;;;23.90;39.00;;;;;;1538697;77;1146;-66
2022/04/15 00:15:43;;;;;;;;;;;23.90;39.00;;;;;;1537252;77;649;-67
2022/04/15 00:17:45;;;;;;;;;;;23.90;39.00;;;;;;1538671;77;723;-67
2022/04/15 00:19:47;;;;;;;;;;;23.90;39.00;;;;;;1538796;77;667;-66
2022/04/15 00:21:49;;;;;;;;;;;23.80;38.90;;;;;;1538372;76;731;-67
2022/04/15 00:23:56;;;;;;;;;;;23.90;39.10;;;;;;1536704;77;1191;-67
2022/04/15 00:25:55;;;;;;;;;;;23.80;39.00;;;;;;1537378;76;1621;-64
2022/04/15 00:27:57;;;;;;;;;;;23.90;39.10;;;;;;1538736;77;720;-66
2022/04/15 00:29:58;;;;;;;;;;;23.90;39.10;;;;;;1538641;77;690;-66
2022/04/15 00:32:00;;;;;;;;;;;23.90;39.20;;;;;;1538589;77;1928;-67
2022/04/15 00:34:03;;;;;;;;;;;23.80;39.20;;;;;;1537644;77;1142;-67
2022/04/15 00:36:05;;;;;;;;;;;23.90;39.30;;;;;;1538650;77;717;-66
2022/04/15 00:38:06;;;;;;;;;;;23.90;39.20;;;;;;1538562;77;710;-67
2022/04/15 00:40:10;;;;;;;;;;;23.90;39.20;;;;;;1538685;76;731;-68
2022/04/15 00:42:12;;;;;;;;;;;23.90;39.20;;;;;;1533728;77;748;-67
2022/04/15 00:44:15;;;;;;;;;;;23.90;39.20;;;;;;1537274;73;2075;-62
2022/04/15 00:46:16;;;;;;;;;;;23.90;39.20;;;;;;1543703;76;685;-62
2022/04/15 00:48:19;;;;;;;;;;;23.90;39.20;;;;;;1532522;76;712;-62
2022/04/15 00:50:22;;;;;;;;;;;23.90;39.20;;;;;;1536652;76;684;-65
2022/04/15 00:52:24;;;;;;;;;;;23.90;39.20;;;;;;1522656;76;1930;-63
2022/04/15 00:54:28;;;;;;;;;;;23.90;39.20;;;;;;1520115;76;1201;-65
2022/04/15 00:56:31;;;;;;;;;;;23.90;39.20;;;;;;1494161;77;1596;-66
2022/04/15 00:58:33;;;;;;;;;;;23.90;39.20;;;;;;1505876;77;608;-62
2022/04/15 01:00:36;;;;;;;;;;;23.90;39.20;;;;;;1507322;77;636;-60
2022/04/15 01:02:38;;;;;;;;;;;23.90;39.20;;;;;;1508310;77;678;-64
2022/04/15 01:04:40;;;;;;;;;;;23.90;39.20;;;;;;1507967;77;1122;-64
2022/04/15 01:06:42;;;;;;;;;;;23.90;39.20;;;;;;1502737;77;659;-64
2022/04/15 01:08:44;;;;;;;;;;;23.80;39.20;;;;;;1487749;77;692;-61
2022/04/15 01:10:45;;;;;;;;;;;23.90;39.40;;;;;;1500886;77;672;-63
2022/04/15 01:12:51;;;;;;;;;;;23.90;39.40;;;;;;1507183;77;1935;-62
2022/04/15 01:14:52;;;;;;;;;;;23.80;39.30;;;;;;1497670;77;1731;-64
2022/04/15 01:16:54;;;;;;;;;;;23.90;39.40;;;;;;1486161;77;678;-63
2022/04/15 01:18:56;;;;;;;;;;;23.80;39.30;;;;;;1500318;77;684;-63
2022/04/15 01:20:59;;;;;;;;;;;23.80;39.40;;;;;;1508700;77;685;-63
2022/04/15 01:23:08;;;;;;;;;;;23.80;39.40;;;;;;1500481;77;1143;-66
2022/04/15 01:25:12;;;;;;;;;;;23.80;39.40;;;;;;1507697;77;748;-69
2022/04/15 01:27:15;;;;;;;;;;;23.80;39.40;;;;;;1500418;77;746;-67
2022/04/15 01:29:17;;;;;;;;;;;23.80;39.40;;;;;;1508793;77;1094;-63
2022/04/15 01:31:20;;;;;;;;;;;23.80;39.50;;;;;;1490373;77;656;-63
2022/04/15 01:33:21;;;;;;;;;;;23.80;39.40;;;;;;1503551;77;1915;-63
2022/04/15 01:35:23;;;;;;;;;;;23.70;39.40;;;;;;1507414;77;675;-65
2022/04/15 01:37:25;;;;;;;;;;;23.70;39.50;;;;;;1502233;77;790;-64
2022/04/15 01:39:28;;;;;;;;;;;23.80;39.50;;;;;;1506369;77;641;-63
2022/04/15 01:41:29;;;;;;;;;;;23.90;39.60;;;;;;1507465;77;593;-64
2022/04/15 01:43:31;;;;;;;;;;;23.80;39.60;;;;;;1501672;77;1104;-67
2022/04/15 01:45:33;;;;;;;;;;;23.80;39.60;;;;;;1486940;77;774;-65
2022/04/15 01:47:36;;;;;;;;;;;23.80;39.70;;;;;;1502995;77;672;-64
2022/04/15 01:49:38;;;;;;;;;;;23.80;39.70;;;;;;1497787;77;654;-65
2022/04/15 01:51:40;;;;;;;;;;;23.80;39.70;;;;;;1505691;77;750;-66
2022/04/15 01:53:41;;;;;;;;;;;23.90;39.60;;;;;;1510641;77;1946;-63
2022/04/15 01:55:43;;;;;;;;;;;23.70;39.60;;;;;;1504904;77;861;-62
2022/04/15 01:57:45;;;;;;;;;;;23.80;39.60;;;;;;1505167;77;750;-64
2022/04/15 01:59:47;;;;;;;;;;;23.80;39.60;;;;;;1502605;77;667;-65
2022/04/15 02:01:50;;;;;;;;;;;23.80;39.70;;;;;;1506223;77;669;-63
2022/04/15 02:03:52;;;;;;;;;;;23.80;39.70;;;;;;1506337;77;1141;-65
2022/04/15 02:05:54;;;;;;;;;;;23.80;39.60;;;;;;1506137;77;665;-64
2022/04/15 02:07:55;;;;;;;;;;;23.80;39.70;;;;;;1512894;77;684;-63
2022/04/15 02:09:57;;;;;;;;;;;23.80;39.70;;;;;;1506391;77;714;-64
2022/04/15 02:11:59;;;;;;;;;;;23.70;39.70;;;;;;1506308;77;1933;-64
2022/04/15 02:14:01;;;;;;;;;;;23.70;39.80;;;;;;1506327;77;1127;-64
2022/04/15 02:16:03;;;;;;;;;;;23.80;39.80;;;;;;1505081;77;754;-64
2022/04/15 02:18:05;;;;;;;;;;;23.80;39.80;;;;;;1504303;77;696;-62
2022/04/15 02:20:10;;;;;;;;;;;23.70;39.80;;;;;;1502702;77;685;-64
2022/04/15 02:22:11;;;;;;;;;;;23.70;40.00;;;;;;1505996;77;1098;-67
2022/04/15 02:24:14;;;;;;;;;;;23.70;39.90;;;;;;1506240;77;1183;-64
2022/04/15 02:26:16;;;;;;;;;;;23.70;39.90;;;;;;1503377;77;694;-64
2022/04/15 02:28:17;;;;;;;;;;;23.80;39.90;;;;;;1506290;77;645;-61
2022/04/15 02:30:20;;;;;;;;;;;23.80;39.90;;;;;;1513765;77;659;-64
2022/04/15 02:32:23;;;;;;;;;;;23.90;40.00;;;;;;1515344;77;1909;-65
2022/04/15 02:34:25;;;;;;;;;;;23.90;39.90;;;;;;1513428;76;1220;-65
2022/04/15 02:36:27;;;;;;;;;;;23.90;39.80;;;;;;1513950;77;690;-68
2022/04/15 02:38:29;;;;;;;;;;;23.90;39.80;;;;;;1516332;77;718;-63
2022/04/15 02:40:30;;;;;;;;;;;24.00;39.80;;;;;;1512340;77;680;-64
2022/04/15 02:42:33;;;;;;;;;;;24.10;40.00;;;;;;1512439;77;773;-66
2022/04/15 02:44:35;;;;;;;;;;;24.00;40.10;;;;;;1520166;76;1118;-65
2022/04/15 02:46:37;;;;;;;;;;;24.00;40.20;;;;;;1488663;78;711;-66
2022/04/15 02:48:39;;;;;;;;;;;23.90;40.20;;;;;;1513498;77;731;-65
2022/04/15 02:50:41;;;;;;;;;;;23.90;40.30;;;;;;1524089;77;655;-68
2022/04/15 02:52:43;;;;;;;;;;;23.90;40.50;;;;;;1518401;77;1938;-65
2022/04/15 02:54:44;;;;;;;;;;;23.90;40.70;;;;;;1518008;77;1107;-65
2022/04/15 02:56:46;;;;;;;;;;;23.80;40.70;;;;;;1515264;77;723;-66
2022/04/15 02:58:48;;;;;;;;;;;23.70;41.00;;;;;;1514550;77;696;-65
2022/04/15 03:00:50;;;;;;;;;;;23.70;41.00;;;;;;1511929;77;681;-62
2022/04/15 03:02:52;;;;;;;;;;;23.70;41.20;;;;;;1522199;76;1134;-67
2022/04/15 03:04:54;;;;;;;;;;;23.70;41.10;;;;;;1515880;77;689;-65
2022/04/15 03:06:56;;;;;;;;;;;23.60;41.10;;;;;;1513062;77;652;-64
2022/04/15 03:08:59;;;;;;;;;;;23.60;41.10;;;;;;1511284;77;772;-66
2022/04/15 03:11:00;;;;;;;;;;;23.60;41.20;;;;;;1522551;77;676;-65
2022/04/15 03:13:03;;;;;;;;;;;23.60;41.30;;;;;;1517819;76;1943;-66
2022/04/15 03:15:05;;;;;;;;;;;23.60;41.30;;;;;;1521456;77;692;-64
2022/04/15 03:17:07;;;;;;;;;;;23.70;41.50;;;;;;1520701;77;677;-64
2022/04/15 03:19:09;;;;;;;;;;;23.70;41.50;;;;;;1511095;77;713;-65
2022/04/15 03:21:10;;;;;;;;;;;23.60;41.40;;;;;;1516012;77;660;-66
2022/04/15 03:23:12;;;;;;;;;;;23.60;41.50;;;;;;1523122;76;1237;-67
2022/04/15 03:25:18;;;;;;;;;;;23.70;41.60;;;;;;1509822;77;655;-65
2022/04/15 03:27:20;;;;;;;;;;;23.70;41.60;;;;;;1505827;77;673;-65
2022/04/15 03:29:22;;;;;;;;;;;23.60;41.50;;;;;;1517304;77;768;-66
2022/04/15 03:31:24;;;;;;;;;;;23.70;41.70;;;;;;1523049;77;689;-65
2022/04/15 03:33:26;;;;;;;;;;;23.60;41.40;;;;;;1523950;76;1940;-67
2022/04/15 03:35:28;;;;;;;;;;;23.60;41.40;;;;;;1516610;77;692;-65
2022/04/15 03:37:29;;;;;;;;;;;23.70;41.50;;;;;;1525002;77;671;-66
2022/04/15 03:39:31;;;;;;;;;;;23.70;41.60;;;;;;1510635;77;736;-67
2022/04/15 03:41:34;;;;;;;;;;;23.60;41.40;;;;;;1511098;77;675;-65
2022/04/15 03:43:36;;;;;;;;;;;23.60;41.30;;;;;;1510647;77;1157;-64
2022/04/15 03:45:38;;;;;;;;;;;23.70;41.50;;;;;;1517890;77;780;-65
2022/04/15 03:47:41;;;;;;;;;;;23.70;41.50;;;;;;1511275;77;663;-64
2022/04/15 03:49:45;;;;;;;;;;;23.70;41.40;;;;;;1512952;77;685;-66
2022/04/15 03:51:47;;;;;;;;;;;23.70;41.40;;;;;;1510960;77;977;-65
2022/04/15 03:53:49;;;;;;;;;;;23.80;41.30;;;;;;1518234;76;1953;-66
2022/04/15 03:55:53;;;;;;;;;;;23.90;41.10;;;;;;1515529;77;741;-67
2022/04/15 03:57:55;;;;;;;;;;;24.00;40.80;;;;;;1517756;77;737;-67
2022/04/15 03:59:57;;;;;;;;;;;24.10;40.50;;;;;;1517645;77;679;-67
2022/04/15 04:01:59;;;;;;;;;;;24.20;40.30;;;;;;1517670;77;701;-68
2022/04/15 04:04:01;;;;;;;;;;;24.30;40.20;;;;;;1518732;77;1106;-66
2022/04/15 04:06:03;;;;;;;;;;;24.30;40.00;;;;;;1519448;77;703;-65
2022/04/15 04:08:05;;;;;;;;;;;24.30;39.90;;;;;;1511341;77;694;-65
2022/04/15 04:10:07;;;;;;;;;;;24.40;39.70;;;;;;1512915;77;715;-65
2022/04/15 04:12:09;;;;;;;;;;;24.40;39.60;;;;;;1512179;77;749;-66
2022/04/15 04:14:11;;;;;;;;;;;24.40;39.60;;;;;;1514309;76;1940;-67
2022/04/15 04:16:13;;;;;;;;;;;24.40;39.60;;;;;;1515731;77;681;-66
2022/04/15 04:18:17;;;;;;;;;;;24.40;39.50;;;;;;1514521;77;732;-66
2022/04/15 04:20:18;;;;;;;;;;;24.50;39.60;;;;;;1517649;77;1507;-68
2022/04/15 04:22:20;;;;;;;;;;;24.50;39.50;;;;;;1513891;77;734;-66
2022/04/15 04:24:22;;;;;;;;;;;24.50;39.60;;;;;;1517944;76;1269;-67
2022/04/15 04:26:24;;;;;;;;;;;24.40;39.50;;;;;;1507259;77;721;-66
2022/04/15 04:28:26;;;;;;;;;;;24.50;39.50;;;;;;1515072;77;710;-66
2022/04/15 04:30:28;;;;;;;;;;;24.50;39.50;;;;;;1519080;77;724;-65
2022/04/15 04:32:30;;;;;;;;;;;24.50;39.60;;;;;;1506797;77;746;-65
2022/04/15 04:34:33;;;;;;;;;;;24.50;39.50;;;;;;1515082;76;1939;-66
2022/04/15 04:36:35;;;;;;;;;;;24.50;39.60;;;;;;1517499;77;695;-65
2022/04/15 04:38:36;;;;;;;;;;;24.50;39.50;;;;;;1524047;77;680;-64
2022/04/15 04:40:38;;;;;;;;;;;24.50;39.40;;;;;;1513699;77;683;-64
2022/04/15 04:42:40;;;;;;;;;;;24.50;39.50;;;;;;1508956;77;651;-63
2022/04/15 04:44:42;;;;;;;;;;;24.50;39.60;;;;;;1517382;77;1136;-64
2022/04/15 04:46:44;;;;;;;;;;;24.50;39.50;;;;;;1516553;77;794;-65
2022/04/15 04:48:46;;;;;;;;;;;24.50;39.60;;;;;;1513147;77;791;-64
2022/04/15 04:50:49;;;;;;;;;;;24.40;39.50;;;;;;1515487;77;730;-66
2022/04/15 04:52:51;;;;;;;;;;;24.50;39.60;;;;;;1503436;77;677;-66
2022/04/15 04:54:53;;;;;;;;;;;24.40;39.70;;;;;;1506324;77;639;-65
2022/04/15 04:56:55;;;;;;;;;;;24.50;39.60;;;;;;1492105;77;671;-66
2022/04/15 04:58:57;;;;;;;;;;;24.40;39.50;;;;;;1505932;77;664;-64
2022/04/15 05:00:59;;;;;;;;;;;24.40;39.50;;;;;;1507489;77;674;-64
2022/04/15 05:03:02;;;;;;;;;;;24.40;39.50;;;;;;1502853;77;1153;-64
2022/04/15 05:05:04;;;;;;;;;;;24.40;39.60;;;;;;1507965;77;711;-66
2022/04/15 05:07:06;;;;;;;;;;;24.40;39.60;;;;;;1505108;77;723;-65
2022/04/15 05:09:08;;;;;;;;;;;24.40;39.60;;;;;;1508528;77;698;-66
2022/04/15 05:11:10;;;;;;;;;;;24.40;39.50;;;;;;1500060;77;663;-65
2022/04/15 05:13:12;;;;;;;;;;;24.40;39.50;;;;;;1503783;77;1944;-63
2022/04/15 05:15:13;;;;;;;;;;;24.40;39.50;;;;;;1497534;77;749;-67
2022/04/15 05:17:15;;;;;;;;;;;24.50;39.60;;;;;;1509833;77;741;-64
2022/04/15 05:19:17;;;;;;;;;;;24.40;39.60;;;;;;1513769;77;691;-63
2022/04/15 05:21:19;;;;;;;;;;;24.50;39.70;;;;;;1503986;77;716;-64
2022/04/15 05:23:21;;;;;;;;;;;24.40;39.60;;;;;;1505209;77;1186;-66
2022/04/15 05:25:23;;;;;;;;;;;24.50;39.60;;;;;;1509288;77;678;-65
2022/04/15 05:27:25;;;;;;;;;;;24.40;39.80;;;;;;1509698;77;679;-64
2022/04/15 05:29:27;;;;;;;;;;;24.40;39.70;;;;;;1507193;77;691;-64
2022/04/15 05:31:29;;;;;;;;;;;24.50;39.70;;;;;;1502085;77;702;-64
2022/04/15 05:33:31;;;;;;;;;;;24.50;39.50;;;;;;1506088;77;1949;-64
2022/04/15 05:35:32;;;;;;;;;;;24.60;39.50;;;;;;1502585;77;666;-66
2022/04/15 05:37:34;;;;;;;;;;;24.40;39.50;;;;;;1507015;77;664;-65
2022/04/15 05:39:36;;;;;;;;;;;24.40;39.50;;;;;;1508524;77;737;-66
2022/04/15 05:41:38;;;;;;;;;;;24.30;39.60;;;;;;1503249;77;700;-68
2022/04/15 05:43:40;;;;;;;;;;;24.30;39.70;;;;;;1507436;77;1152;-63
2022/04/15 05:45:42;;;;;;;;;;;24.30;39.70;;;;;;1503926;77;706;-64
2022/04/15 05:47:44;;;;;;;;;;;24.30;39.70;;;;;;1507444;77;666;-65
2022/04/15 05:49:46;;;;;;;;;;;24.30;39.70;;;;;;1500574;77;683;-65
2022/04/15 05:51:48;;;;;;;;;;;24.30;39.80;;;;;;1506903;77;769;-65
2022/04/15 05:53:49;;;;;;;;;;;24.20;39.70;;;;;;1500045;77;1945;-64
2022/04/15 05:55:51;;;;;;;;;;;24.20;39.70;;;;;;1507217;77;655;-66
2022/04/15 05:57:53;;;;;;;;;;;24.30;39.80;;;;;;1504568;77;705;-66
2022/04/15 05:59:55;;;;;;;;;;;24.20;39.70;;;;;;1501115;77;718;-65
2022/04/15 06:01:57;;;;;;;;;;;24.30;39.90;;;;;;1508807;77;616;-65
2022/04/15 06:03:59;;;;;;;;;;;24.30;39.80;;;;;;1506058;77;1119;-65
2022/04/15 06:06:01;;;;;;;;;;;24.30;39.80;;;;;;1505140;77;694;-65
2022/04/15 06:08:03;;;;;;;;;;;24.30;39.80;;;;;;1499030;77;681;-66
2022/04/15 06:10:05;;;;;;;;;;;24.20;39.70;;;;;;1505635;77;703;-66
2022/04/15 06:12:07;;;;;;;;;;;24.20;39.70;;;;;;1509746;77;663;-68
2022/04/15 06:14:09;;;;;;;;;;;24.20;39.70;;;;;;1504068;77;1929;-65
2022/04/15 06:16:11;;;;;;;;;;;24.40;39.90;;;;;;1506002;77;651;-66
2022/04/15 06:18:13;;;;;;;;;;;24.30;39.90;;;;;;1502476;77;710;-66
2022/04/15 06:20:15;;;;;;;;;;;24.30;39.90;;;;;;1507360;77;634;-66
2022/04/15 06:22:17;;;;;;;;;;;24.40;39.90;;;;;;1507327;77;661;-64
2022/04/15 06:24:19;;;;;;;;;;;24.30;39.80;;;;;;1503008;77;1180;-64
2022/04/15 06:26:21;;;;;;;;;;;24.40;39.70;;;;;;1495947;77;706;-64
2022/04/15 06:28:23;;;;;;;;;;;24.50;39.70;;;;;;1503570;77;743;-65
2022/04/15 06:30:25;;;;;;;;;;;24.50;39.70;;;;;;1512118;77;825;-65
2022/04/15 06:32:26;;;;;;;;;;;24.50;39.60;;;;;;1513420;77;667;-65
2022/04/15 06:34:28;;;;;;;;;;;24.50;39.60;;;;;;1513362;77;1942;-66
2022/04/15 06:36:30;;;;;;;;;;;24.50;39.60;;;;;;1516046;77;658;-67
2022/04/15 06:38:32;;;;;;;;;;;24.50;39.60;;;;;;1514951;77;728;-64
2022/04/15 06:40:38;;;;;;;;;;;24.50;39.50;;;;;;1510374;77;671;-65
2022/04/15 06:42:38;;;;;;;;;;;24.50;39.70;;;;;;1513178;77;1135;-63
2022/04/15 06:44:40;;;;;;;;;;;24.40;39.90;;;;;;1504752;75;225454;-65
2022/04/15 06:46:41;;;;;;;;;;;24.40;39.90;;;;;;1520499;77;677;-68
2022/04/15 06:48:43;;;;;;;;;;;24.30;40.40;;;;;;1502716;78;663;-68
2022/04/15 06:50:45;;;;;;;;;;;24.20;40.70;;;;;;1521193;77;760;-69
2022/04/15 06:52:47;;;;;;;;;;;24.10;40.90;;;;;;1513800;77;705;-67
2022/04/15 06:54:49;;;;;;;;;;;24.10;41.10;;;;;;1489660;78;1965;-69
2022/04/15 06:56:51;;;;;;;;;;;24.10;40.80;;;;;;1501525;78;692;-68
2022/04/15 06:58:53;;;;;;;;;;;24.30;40.60;;;;;;1492714;78;739;-69
2022/04/15 07:00:54;;;;;;;;;;;24.30;40.30;;;;;;1490838;78;881;-68
2022/04/15 07:02:56;;;;;;;;;;;24.40;40.10;;;;;;1494853;78;713;-66
2022/04/15 07:04:58;;;;;;;;;;;24.40;40.10;;;;;;1494617;78;1090;-69
2022/04/15 07:07:00;;;;;;;;;;;24.30;40.10;;;;;;1491702;78;707;-68
2022/04/15 07:09:02;;;;;;;;;;;24.30;40.10;;;;;;1490653;78;769;-69
2022/04/15 07:11:04;;;;;;;;;;;24.30;40.20;;;;;;1493968;78;768;-67
2022/04/15 07:13:06;;;;;;;;;;;24.30;40.30;;;;;;1492725;78;736;-68
2022/04/15 07:15:08;;;;;;;;;;;24.30;40.20;;;;;;1489974;78;1958;-67
2022/04/15 07:17:10;;;;;;;;;;;24.30;40.20;;;;;;1491310;78;652;-68
2022/04/15 07:19:12;;;;;;;;;;;24.30;40.20;;;;;;1495357;78;727;-68
2022/04/15 07:21:14;;;;;;;;;;;24.20;40.00;;;;;;1493729;78;693;-68
2022/04/15 07:23:16;;;;;;;;;;;24.20;40.20;;;;;;1487982;78;1076;-68
2022/04/15 07:25:17;;;;;;;;;;;24.10;40.20;;;;;;1491569;78;724;-67
2022/04/15 07:27:19;;;;;;;;;;;24.20;40.20;;;;;;1463400;79;779;-69
2022/04/15 07:29:21;;;;;;;;;;;24.20;40.20;;;;;;1474437;80;660;-68
2022/04/15 07:31:23;;;;;;;;;;;24.10;40.20;;;;;;1506134;78;713;-68
2022/04/15 07:33:25;;;;;;;;;;;24.20;40.10;;;;;;1497186;78;1163;-69
2022/04/15 07:35:27;;;;;;;;;;;24.20;40.00;;;;;;1497450;78;1930;-69
2022/04/15 07:37:29;;;;;;;;;;;24.20;40.00;;;;;;1499542;79;678;-69
2022/04/15 07:39:35;;;;;;;;;;;24.20;40.10;;;;;;1502054;78;676;-68
2022/04/15 07:41:36;;;;;;;;;;;24.20;40.10;;;;;;1466902;80;1568;-69
2022/04/15 07:43:38;;;;;;;;;;;24.20;40.00;;;;;;1488232;78;1153;-69
2022/04/15 07:45:40;;;;;;;;;;;24.30;40.10;;;;;;1450782;80;781;-68
2022/04/15 07:47:43;;;;;;;;;;;24.20;40.00;;;;;;1509199;77;777;-69
2022/04/15 07:49:45;;;;;;;;;;;24.30;40.10;;;;;;1504625;78;744;-69
2022/04/15 07:51:48;;;;;;;;;;;24.30;39.90;;;;;;1502789;77;647;-69
2022/04/15 07:53:50;;;;;;;;;;;24.30;39.90;;;;;;1508674;78;1142;-70
2022/04/15 07:55:52;;;;;;;;;;;24.30;39.90;;;;;;1505703;77;1917;-69
2022/04/15 07:57:54;;;;;;;;;;;24.30;39.90;;;;;;1502062;77;667;-70
2022/04/15 07:59:56;;;;;;;;;;;24.30;39.90;;;;;;1514615;77;666;-69
2022/04/15 08:01:58;;;;;;;;;;;24.30;39.90;;;;;;1508297;77;901;-69
2022/04/15 08:04:00;;;;;;;;;;;24.30;40.00;;;;;;1515583;77;1124;-69
2022/04/15 08:06:02;;;;;;;;;;;24.30;40.10;;;;;;1462276;80;707;-69
2022/04/15 08:08:05;;;;;;;;;;;24.20;40.00;;;;;;1487617;78;791;-68
2022/04/15 08:10:07;;;;;;;;;;;24.30;40.20;;;;;;1495852;78;705;-67
2022/04/15 08:12:09;;;;;;;;;;;24.30;40.20;;;;;;1489831;78;786;-68
2022/04/15 08:14:11;;;;;;;;;;;24.30;40.20;;;;;;1491499;78;1939;-67
2022/04/15 08:16:13;;;;;;;;;;;24.30;40.20;;;;;;1464673;80;757;-67
2022/04/15 08:18:15;;;;;;;;;;;24.30;40.20;;;;;;1501361;78;690;-68
2022/04/15 08:20:17;;;;;;;;;;;24.30;40.20;;;;;;1499204;78;700;-68
2022/04/15 08:22:18;;;;;;;;;;;24.30;40.20;;;;;;1504799;78;666;-67
2022/04/15 08:24:21;;;;;;;;;;;24.30;40.20;;;;;;1498867;78;1260;-66
2022/04/15 08:26:23;;;;;;;;;;;24.30;40.30;;;;;;1505610;78;692;-67
2022/04/15 08:28:25;;;;;;;;;;;24.20;40.20;;;;;;1496323;78;730;-68
2022/04/15 08:30:26;;;;;;;;;;;24.20;40.20;;;;;;1499493;78;724;-68
2022/04/15 08:32:33;;;;;;;;;;;24.30;40.30;;;;;;1502229;78;678;-67
2022/04/15 08:34:32;;;;;;;;;;;24.30;40.30;;;;;;1497256;78;1948;-67
2022/04/15 08:36:34;;;;;;;;;;;24.30;40.40;;;;;;1497313;79;701;-68
2022/04/15 08:38:36;;;;;;;;;;;24.30;40.40;;;;;;1499082;79;754;-68
2022/04/15 08:40:38;;;;;;;;;;;24.20;40.20;;;;;;1494999;78;714;-67
2022/04/15 08:42:43;;;;;;;;;;;24.20;40.20;;;;;;1502695;78;689;-67
2022/04/15 08:44:45;;;;;;;;;;;24.20;40.30;;;;;;1499829;78;1156;-67
2022/04/15 08:46:46;;;;;;;;;;;24.30;40.40;;;;;;1504363;78;706;-67
2022/04/15 08:48:48;;;;;;;;;;;24.30;40.50;;;;;;1498255;78;718;-67
2022/04/15 08:50:50;;;;;;;;;;;24.20;40.50;;;;;;1507114;78;762;-67
2022/04/15 08:52:53;;;;;;;;;;;24.30;40.40;;;;;;1500457;78;714;-67
2022/04/15 08:54:55;;;;;;;;;;;24.30;40.20;;;;;;1498946;78;1957;-67
2022/04/15 08:56:57;;;;;;;;;;;24.30;40.40;;;;;;1503246;78;644;-68
2022/04/15 08:58:59;;;;;;;;;;;24.40;40.20;;;;;;1500505;78;757;-67
2022/04/15 09:01:01;;;;;;;;;;;24.30;40.20;;;;;;1501748;78;737;-68
2022/04/15 09:03:03;;;;;;;;;;;24.30;40.40;;;;;;1495447;78;746;-65
2022/04/15 09:05:05;;;;;;;;;;;24.20;40.70;;;;;;1500730;78;1101;-68
2022/04/15 09:07:07;;;;;;;;;;;24.20;40.70;;;;;;1495574;78;635;-67
2022/04/15 09:09:12;;;;;;;;;;;24.30;40.70;;;;;;1507803;78;763;-67
2022/04/15 09:11:13;;;;;;;;;;;24.30;40.60;;;;;;1504656;77;1646;-67
2022/04/15 09:13:21;;;;;;;;;;;24.30;40.70;;;;;;1504102;78;1148;-66
2022/04/15 09:15:23;;;;;;;;;;;24.20;40.80;;;;;;1487100;78;1923;-66
2022/04/15 09:17:25;;;;;;;;;;;24.10;40.90;;;;;;1503066;78;759;-67
2022/04/15 09:19:26;;;;;;;;;;;24.20;40.90;;;;;;1500170;78;731;-68
2022/04/15 09:21:28;;;;;;;;;;;24.10;40.90;;;;;;1460852;80;604;-66
2022/04/15 09:23:31;;;;;;;;;;;24.20;41.00;;;;;;1465543;80;1164;-68
2022/04/15 09:25:34;;;;;;;;;;;24.10;40.90;;;;;;1494744;78;727;-67
2022/04/15 09:27:38;;;;;;;;;;;24.10;41.00;;;;;;1475877;80;723;-66
2022/04/15 09:29:40;;;;;;;;;;;24.10;41.00;;;;;;1462820;80;754;-64
2022/04/15 09:31:44;;;;;;;;;;;24.20;41.00;;;;;;1467951;79;689;-66
2022/04/15 09:33:58;;;;;;;;;;;24.10;41.00;;;;;;1487721;78;1169;-66
2022/04/15 09:36:00;;;;;;;;;;;24.10;41.00;;;;;;1464949;80;1933;-67
2022/04/15 09:38:03;;;;;;;;;;;24.20;41.00;;;;;;1484856;78;726;-70
2022/04/15 09:40:18;;;;;;;;;;;24.20;40.90;;;;;;1486956;78;731;-70
2022/04/15 09:42:20;;;;;;;;;;;24.40;39.90;;;;;;1488511;78;675;-69
2022/04/15 09:44:22;;;;;;;;;;;24.30;39.80;;;;;;1461448;80;1234;-70
2022/04/15 09:46:24;;;;;;;;;;;24.50;39.80;;;;;;1486122;78;811;-70
2022/04/15 09:48:26;;;;;;;;;;;24.40;39.70;;;;;;1488301;78;724;-70
2022/04/15 09:50:37;;;;;;;;;;;24.50;39.60;;;;;;1490199;78;728;-69
2022/04/15 09:52:40;;;;;;;;;;;24.50;39.60;;;;;;1490697;78;698;-69
2022/04/15 09:54:41;;;;;;;;;;;24.50;39.60;;;;;;1490282;78;1161;-69
2022/04/15 09:56:44;;;;;;;;;;;24.50;39.60;;;;;;1457603;80;838;-69
2022/04/15 09:58:46;;;;;;;;;;;24.50;39.50;;;;;;1487276;78;661;-69
2022/04/15 10:00:51;;;;;;;;;;;24.50;39.60;;;;;;1487306;79;701;-69
2022/04/15 10:02:53;;;;;;;;;;;24.50;39.50;;;;;;1498246;78;1720;-68
2022/04/15 10:04:55;;;;;;;;;;;24.60;39.40;;;;;;1490090;78;1138;-67
2022/04/15 10:06:57;;;;;;;;;;;24.50;38.80;;;;;;1478596;78;736;-70
2022/04/15 10:09:02;;;;;;;;;;;24.50;38.30;;;;;;1490652;78;759;-71
2022/04/15 10:11:03;;;;;;;;;;;24.50;37.80;;;;;;1497687;78;1653;-69
2022/04/15 10:13:05;;;;;;;;;;;24.40;38.10;;;;;;1492798;78;757;-69
2022/04/15 10:15:08;;;;;;;;;;;24.40;38.30;;;;;;1488347;78;1927;-68
2022/04/15 10:17:12;;;;;;;;;;;24.40;38.40;;;;;;1490805;78;669;-69
2022/04/15 10:19:13;;;;;;;;;;;24.40;38.10;;;;;;1488921;78;1793;-69
2022/04/15 10:21:15;;;;;;;;;;;24.40;38.20;;;;;;1499716;78;698;-70
2022/04/15 10:23:17;;;;;;;;;;;24.30;37.30;;;;;;1498554;78;1148;-69
2022/04/15 10:25:19;;;;;;;;;;;24.30;37.90;;;;;;1489762;78;706;-69
2022/04/15 10:27:26;;;;;;;;;;;24.30;38.00;;;;;;1487360;78;721;-70
2022/04/15 10:29:27;;;;;;;;;;;24.30;38.00;;;;;;1485191;78;686;-70
2022/04/15 10:31:39;;;;;;;;;;;24.30;38.00;;;;;;1489672;78;668;-69
2022/04/15 10:33:41;;;;;;;;;;;24.30;38.10;;;;;;1492783;78;1133;-68
2022/04/15 10:35:43;;;;;;;;;;;24.30;38.10;;;;;;1494957;78;1927;-70
2022/04/15 10:37:49;;;;;;;;;;;24.30;38.20;;;;;;1490940;78;769;-69
2022/04/15 10:39:51;;;;;;;;;;;24.30;37.70;;;;;;1471725;78;1469;-68
2022/04/15 10:41:55;;;;;;;;;;;24.30;37.80;;;;;;1492519;78;681;-69
2022/04/15 10:43:59;;;;;;;;;;;24.20;37.30;;;;;;1489756;78;1136;-69
2022/04/15 10:46:03;;;;;;;;;;;24.10;36.50;;;;;;1504539;78;790;-70
2022/04/15 10:48:05;;;;;;;;;;;24.00;36.90;;;;;;1494025;78;1007;-69
2022/04/15 10:50:08;;;;;;;;;;;23.90;36.30;;;;;;1499616;78;705;-69
2022/04/15 10:52:16;;;;;;;;;;;23.90;36.90;;;;;;1467832;79;815;-69
2022/04/15 10:54:35;;;;;;;;;;;23.80;37.20;;;;;;1478789;80;1176;-69
2022/04/15 10:56:38;;;;;;;;;;;24.00;37.40;;;;;;1467573;79;1928;-70
2022/04/15 11:01:13;;;;;;;;;;;23.90;37.60;;;;;;1466002;80;1925;-68
2022/04/15 11:01:15;;;;;;;;;;;24.00;37.60;;;;;;1496906;78;976;-69
2022/04/15 11:03:20;;;;;;;;;;;24.00;37.60;;;;;;1504150;78;1146;-69
2022/04/15 11:05:23;;;;;;;;;;;24.00;37.60;;;;;;1498533;78;769;-69
2022/04/15 11:07:29;;;;;;;;;;;24.00;37.00;;;;;;1498316;78;1794;-69
2022/04/15 11:09:31;;;;;;;;;;;24.00;37.30;;;;;;1496851;78;664;-69
2022/04/15 11:11:33;;;;;;;;;;;24.00;37.20;;;;;;1499461;78;723;-69
2022/04/15 11:13:44;;;;;;;;;;;24.00;37.10;;;;;;1499546;78;1196;-69
2022/04/15 11:15:53;;;;;;;;;;;24.00;37.10;;;;;;1496351;78;1919;-69
2022/04/15 11:17:56;;;;;;;;;;;24.00;37.20;;;;;;1509713;77;705;-71
2022/04/15 11:19:57;;;;;;;;;;;24.00;37.20;;;;;;1510930;77;657;-69
2022/04/15 11:21:59;;;;;;;;;;;24.00;37.20;;;;;;1511765;77;706;-69
2022/04/15 11:24:06;;;;;;;;;;;24.00;37.20;;;;;;1483334;79;1398;-67
2022/04/15 11:26:07;;;;;;;;;;;24.00;37.10;;;;;;1513369;77;762;-69
2022/04/15 11:28:09;;;;;;;;;;;24.00;37.10;;;;;;1510677;77;694;-69
2022/04/15 11:30:13;;;;;;;;;;;24.00;37.10;;;;;;1512757;77;674;-70
2022/04/15 11:32:15;;;;;;;;;;;24.10;37.10;;;;;;1512162;77;1795;-70
2022/04/15 11:34:17;;;;;;;;;;;24.00;36.90;;;;;;1503709;77;1135;-69
2022/04/15 11:36:20;;;;;;;;;;;24.00;36.80;;;;;;1512290;77;1921;-69
2022/04/15 11:38:22;;;;;;;;;;;24.00;36.60;;;;;;1509200;77;844;-70
2022/04/15 11:40:24;;;;;;;;;;;24.00;36.60;;;;;;1509676;77;686;-69
2022/04/15 11:42:26;;;;;;;;;;;24.10;36.60;;;;;;1507418;77;665;-69
2022/04/15 11:44:31;;;;;;;;;;;24.00;36.40;;;;;;1480165;79;1229;-70
2022/04/15 11:46:42;;;;;;;;;;;24.10;36.40;;;;;;1510834;77;785;-70
2022/04/15 11:48:45;;;;;;;;;;;24.00;36.30;;;;;;1516026;77;717;-63
2022/04/15 11:50:47;;;;;;;;;;;24.00;36.40;;;;;;1522806;77;671;-62
2022/04/15 11:52:49;;;;;;;;;;;24.00;36.30;;;;;;1508363;77;677;-65
2022/04/15 11:54:51;;;;;;;;;;;24.00;36.30;;;;;;1512658;77;1140;-62
2022/04/15 11:56:55;;;;;;;;;;;24.00;36.30;;;;;;1509910;77;1941;-62
2022/04/15 11:58:57;;;;;;;;;;;24.00;36.40;;;;;;1511528;77;775;-63
2022/04/15 12:01:00;;;;;;;;;;;24.00;36.40;;;;;;1508252;77;765;-62
2022/04/15 12:03:02;;;;;;;;;;;24.00;36.50;;;;;;1513190;77;709;-62
2022/04/15 12:05:04;;;;;;;;;;;24.00;36.60;;;;;;1511243;77;1121;-63
2022/04/15 12:07:19;;;;;;;;;;;23.90;36.50;;;;;;1512246;77;714;-64
2022/04/15 12:09:21;;;;;;;;;;;23.90;36.40;;;;;;1509246;77;678;-63
2022/04/15 12:11:24;;;;;;;;;;;23.90;36.40;;;;;;1514462;77;683;-63